createdAt,value
2022-08-31T00:00:34.889Z,11.73
2022-08-31T00:03:22.531Z,13.32
2022-08-31T00:06:05.263Z,11.65
2022-08-31T00:08:48.113Z,12.25
2022-08-31T00:11:21.171Z,12.48
2022-08-31T00:13:51.904Z,11.77
2022-08-31T00:16:19.324Z,12.15
2022-08-31T00:18:47.047Z,12.43
2022-08-31T00:21:14.408Z,14.13
2022-08-31T00:23:42.887Z,12.10
2022-08-31T00:26:10.140Z,11.73
2022-08-31T00:28:37.462Z,13.32
2022-08-31T00:31:04.747Z,11.93
2022-08-31T00:33:44.197Z,13.70
2022-08-31T00:36:15.840Z,12.98
2022-08-31T00:38:43.275Z,14.05
2022-08-31T00:41:13.645Z,16.05
2022-08-31T00:43:45.284Z,13.20
2022-08-31T00:46:17.590Z,14.95
2022-08-31T00:48:55.029Z,20.65
2022-08-31T00:51:28.918Z,21.83
2022-08-31T00:53:56.929Z,21.77
2022-08-31T00:56:34.989Z,21.95
2022-08-31T00:59:02.841Z,21.85
2022-08-31T01:01:33.640Z,23.67
2022-08-31T01:04:03.185Z,24.33
2022-08-31T01:06:30.800Z,26.02
2022-08-31T01:08:59.985Z,29.73
2022-08-31T01:11:28.081Z,28.15
2022-08-31T01:13:56.079Z,27.02
2022-08-31T01:16:35.016Z,29.10
2022-08-31T01:19:09.876Z,27.42
2022-08-31T01:25:07.136Z,28.33
2022-08-31T01:27:39.365Z,25.13
2022-08-31T01:30:10.377Z,21.35
2022-08-31T01:32:39.110Z,21.10
2022-08-31T01:35:11.484Z,21.83
2022-08-31T01:37:39.428Z,24.35
2022-08-31T01:40:07.799Z,19.80
2022-08-31T01:42:35.288Z,19.85
2022-08-31T01:45:05.120Z,19.25
2022-08-31T01:47:34.753Z,19.60
2022-08-31T01:50:02.073Z,17.40
2022-08-31T01:52:47.089Z,19.00
2022-08-31T01:55:14.704Z,16.60
2022-08-31T01:57:42.018Z,16.80
2022-08-31T02:00:39.022Z,15.70
2022-08-31T02:03:09.784Z,14.45
2022-08-31T02:05:38.045Z,13.70
2022-08-31T02:08:08.217Z,13.38
2022-08-31T02:10:36.307Z,13.20
2022-08-31T02:13:05.051Z,12.50
2022-08-31T02:15:38.455Z,13.50
2022-08-31T02:18:06.577Z,10.82
2022-08-31T02:20:34.913Z,10.23
2022-08-31T02:23:03.436Z,7.30
2022-08-31T02:25:31.358Z,5.97
2022-08-31T02:28:08.266Z,5.55
2022-08-31T02:30:35.773Z,5.15
2022-08-31T02:33:04.144Z,5.30
2022-08-31T02:35:31.665Z,5.20
2022-08-31T02:38:00.709Z,6.20
2022-08-31T02:40:28.262Z,4.75
2022-08-31T02:42:56.609Z,5.32
2022-08-31T02:45:26.582Z,5.68
2022-08-31T02:48:00.316Z,4.82
2022-08-31T02:50:43.817Z,4.47
2022-08-31T02:53:12.336Z,4.97
2022-08-31T02:55:43.054Z,4.55
2022-08-31T02:58:12.754Z,4.13
2022-08-31T03:00:43.984Z,5.32
2022-08-31T03:03:11.680Z,4.63
2022-08-31T03:05:39.185Z,4.55
2022-08-31T03:08:08.089Z,4.22
2022-08-31T03:10:36.099Z,5.30
2022-08-31T03:13:03.652Z,14.43
2022-08-31T03:15:31.339Z,12.30
2022-08-31T03:18:01.604Z,10.75
2022-08-31T03:20:34.522Z,10.65
2022-08-31T03:23:03.089Z,8.77
2022-08-31T03:25:32.235Z,9.55
2022-08-31T03:28:00.623Z,6.22
2022-08-31T03:30:29.887Z,6.07
2022-08-31T03:33:17.507Z,6.50
2022-08-31T03:35:46.036Z,4.35
2022-08-31T03:38:16.771Z,5.55
2022-08-31T03:40:45.130Z,4.82
2022-08-31T03:43:14.221Z,3.83
2022-08-31T03:45:43.521Z,4.28
2022-08-31T03:48:13.063Z,4.90
2022-08-31T03:50:43.499Z,3.85
2022-08-31T03:53:22.512Z,3.45
2022-08-31T03:56:02.364Z,3.58
2022-08-31T03:58:31.897Z,6.45
2022-08-31T04:01:00.698Z,3.25
2022-08-31T04:03:48.502Z,4.07
2022-08-31T04:06:34.179Z,3.88
2022-08-31T04:09:20.281Z,4.55
2022-08-31T04:12:06.226Z,4.60
2022-08-31T04:14:59.747Z,3.75
2022-08-31T04:17:46.520Z,5.53
2022-08-31T04:20:35.983Z,5.68
2022-08-31T04:23:04.344Z,4.97
2022-08-31T04:25:39.848Z,5.10
2022-08-31T04:28:09.115Z,4.97
2022-08-31T04:30:43.426Z,4.32
2022-08-31T04:33:15.647Z,4.50
2022-08-31T04:35:44.010Z,5.43
2022-08-31T04:38:12.208Z,5.40
2022-08-31T04:40:43.579Z,5.78
2022-08-31T04:43:11.458Z,4.75
2022-08-31T04:45:42.845Z,5.70
2022-08-31T04:48:14.967Z,6.65
2022-08-31T04:50:44.097Z,7.55
2022-08-31T04:53:21.822Z,7.22
2022-08-31T04:55:50.711Z,8.80
2022-08-31T04:58:20.475Z,7.82
2022-08-31T05:00:47.688Z,8.25
2022-08-31T05:03:14.850Z,8.30
2022-08-31T05:05:42.808Z,9.80
2022-08-31T05:08:10.170Z,9.13
2022-08-31T05:10:37.532Z,8.63
2022-08-31T05:13:04.792Z,7.80
2022-08-31T05:15:33.484Z,8.20
2022-08-31T05:18:00.893Z,10.30
2022-08-31T05:20:30.712Z,8.15
2022-08-31T05:22:58.070Z,9.45
2022-08-31T05:25:25.406Z,7.45
2022-08-31T05:27:54.914Z,7.90
2022-08-31T05:30:22.872Z,8.02
2022-08-31T05:33:06.163Z,8.55
2022-08-31T05:35:35.372Z,7.20
2022-08-31T05:38:03.078Z,9.88
2022-08-31T05:40:31.486Z,9.73
2022-08-31T05:42:59.651Z,8.38
2022-08-31T05:45:27.569Z,9.68
2022-08-31T05:47:55.222Z,9.05
2022-08-31T05:50:22.543Z,11.55
2022-08-31T05:52:50.300Z,11.50
2022-08-31T05:55:19.483Z,12.77
2022-08-31T05:57:50.965Z,13.05
2022-08-31T06:00:21.066Z,11.32
2022-08-31T06:02:54.826Z,12.57
2022-08-31T06:05:22.628Z,11.00
2022-08-31T06:07:51.094Z,11.57
2022-08-31T06:10:20.891Z,10.48
2022-08-31T06:12:49.910Z,12.02
2022-08-31T06:15:17.960Z,11.73
2022-08-31T06:17:45.737Z,14.57
2022-08-31T06:20:17.751Z,14.50
2022-08-31T06:22:47.843Z,12.70
2022-08-31T06:25:24.472Z,13.48
2022-08-31T06:27:52.947Z,14.50
2022-08-31T06:30:23.068Z,13.75
2022-08-31T06:32:52.418Z,17.90
2022-08-31T06:35:28.178Z,14.90
2022-08-31T06:38:33.798Z,14.18
2022-08-31T06:41:36.878Z,15.27
2022-08-31T06:44:34.263Z,17.48
2022-08-31T06:47:10.407Z,15.23
2022-08-31T06:49:40.815Z,13.65
2022-08-31T06:52:08.350Z,12.38
2022-08-31T06:54:37.907Z,13.07
2022-08-31T06:57:23.838Z,14.88
2022-08-31T07:00:00.163Z,12.18
2022-08-31T07:02:46.182Z,15.10
2022-08-31T07:05:24.686Z,11.20
2022-08-31T07:07:54.685Z,9.80
2022-08-31T07:10:22.321Z,12.25
2022-08-31T07:12:49.731Z,12.43
2022-08-31T07:15:17.355Z,13.98
2022-08-31T07:17:44.835Z,9.90
2022-08-31T07:20:12.679Z,13.32
2022-08-31T07:22:40.886Z,10.48
2022-08-31T07:25:31.258Z,9.05
2022-08-31T07:28:00.556Z,9.63
2022-08-31T07:30:29.030Z,7.93
2022-08-31T07:33:07.099Z,10.52
2022-08-31T07:35:37.213Z,6.70
2022-08-31T07:38:38.732Z,11.23
2022-08-31T07:41:28.998Z,7.88
2022-08-31T07:43:57.155Z,8.73
2022-08-31T07:46:29.892Z,10.07
2022-08-31T07:49:01.302Z,8.10
2022-08-31T07:51:53.285Z,7.32
2022-08-31T07:54:41.087Z,8.35
2022-08-31T07:57:28.894Z,7.00
2022-08-31T08:00:07.811Z,5.10
2022-08-31T08:02:46.407Z,8.45
2022-08-31T08:05:27.701Z,8.27
2022-08-31T08:08:16.787Z,8.80
2022-08-31T08:11:03.947Z,6.95
2022-08-31T08:13:37.424Z,7.00
2022-08-31T08:16:16.093Z,8.48
2022-08-31T08:18:59.756Z,6.68
2022-08-31T08:21:29.342Z,9.13
2022-08-31T08:23:57.266Z,8.25
2022-08-31T08:26:45.450Z,8.40
2022-08-31T08:29:37.847Z,13.75
2022-08-31T08:32:08.703Z,10.73
2022-08-31T08:34:40.736Z,9.02
2022-08-31T08:37:08.309Z,10.18
2022-08-31T08:39:35.744Z,10.60
2022-08-31T08:42:14.239Z,10.30
2022-08-31T08:44:44.023Z,7.82
2022-08-31T08:47:18.969Z,8.07
2022-08-31T08:49:57.012Z,6.30
2022-08-31T08:52:50.966Z,7.28
2022-08-31T08:55:26.415Z,6.53
2022-08-31T08:57:57.832Z,7.00
2022-08-31T09:00:28.488Z,4.32
2022-08-31T09:03:21.141Z,2.92
2022-08-31T09:06:42.956Z,4.75
2022-08-31T09:09:25.663Z,4.20
2022-08-31T09:12:14.557Z,4.63
2022-08-31T09:15:15.908Z,4.32
2022-08-31T09:17:45.021Z,7.22
2022-08-31T09:20:13.311Z,6.03
2022-08-31T09:22:48.538Z,2.88
2022-08-31T09:25:52.322Z,4.75
2022-08-31T09:28:48.119Z,4.18
2022-08-31T09:31:34.490Z,2.97
2022-08-31T09:34:03.681Z,3.55
2022-08-31T09:36:40.859Z,3.40
2022-08-31T09:39:36.838Z,3.45
2022-08-31T09:42:31.189Z,2.72
2022-08-31T09:45:14.135Z,3.90
2022-08-31T09:48:01.137Z,4.32
2022-08-31T09:50:44.865Z,3.88
2022-08-31T09:53:30.749Z,3.83
2022-08-31T09:56:15.595Z,2.78
2022-08-31T09:59:02.890Z,2.77
2022-08-31T10:01:44.941Z,4.07
2022-08-31T10:04:20.495Z,4.15
2022-08-31T10:07:18.285Z,3.28
2022-08-31T10:09:50.791Z,2.05
2022-08-31T10:12:47.150Z,3.08
2022-08-31T10:15:24.980Z,4.95
2022-08-31T10:18:15.340Z,4.28
2022-08-31T10:20:50.686Z,2.33
2022-08-31T10:26:01.078Z,1.88
2022-08-31T10:28:51.483Z,1.40
2022-08-31T10:31:30.071Z,3.83
2022-08-31T10:34:32.534Z,3.05
2022-08-31T10:37:24.934Z,3.03
2022-08-31T10:39:58.234Z,3.00
2022-08-31T10:42:30.766Z,3.28
2022-08-31T10:45:24.692Z,3.25
2022-08-31T10:47:55.871Z,5.20
2022-08-31T10:50:48.123Z,4.05
2022-08-31T10:53:50.591Z,2.72
2022-08-31T10:56:36.633Z,4.97
2022-08-31T10:59:08.435Z,4.70
2022-08-31T11:01:49.533Z,4.20
2022-08-31T11:04:19.914Z,4.38
2022-08-31T11:07:12.336Z,3.13
2022-08-31T11:10:19.908Z,4.05
2022-08-31T11:12:55.435Z,4.38
2022-08-31T11:15:54.097Z,4.18
2022-08-31T11:18:56.450Z,2.53
2022-08-31T11:21:27.919Z,5.05
2022-08-31T11:28:25.855Z,4.35
2022-08-31T11:30:56.856Z,3.97
2022-08-31T11:34:15.859Z,2.90
2022-08-31T11:36:50.246Z,2.85
2022-08-31T11:39:36.094Z,4.00
2022-08-31T11:42:10.994Z,2.60
2022-08-31T11:44:41.585Z,2.60
2022-08-31T11:47:16.403Z,4.38
2022-08-31T11:49:51.991Z,2.58
2022-08-31T11:52:25.391Z,3.22
2022-08-31T11:54:52.978Z,3.33
2022-08-31T11:57:25.394Z,5.15
2022-08-31T11:59:55.404Z,5.32
2022-08-31T12:02:23.114Z,4.75
2022-08-31T12:04:56.448Z,4.15
2022-08-31T12:07:29.861Z,2.60
2022-08-31T12:10:18.918Z,6.13
2022-08-31T12:13:19.498Z,3.70
2022-08-31T12:20:18.678Z,2.88
2022-08-31T12:23:40.674Z,3.58
2022-08-31T12:26:44.383Z,2.33
2022-08-31T12:36:13.626Z,3.92
2022-08-31T12:41:51.243Z,5.28
2022-08-31T12:44:37.737Z,2.83
2022-08-31T12:47:47.748Z,3.95
2022-08-31T12:50:32.577Z,3.55
2022-08-31T12:53:20.176Z,3.10
2022-08-31T12:56:01.231Z,2.95
2022-08-31T12:59:14.195Z,2.60
2022-08-31T13:01:46.603Z,4.13
2022-08-31T13:04:20.833Z,3.40
2022-08-31T13:06:50.905Z,4.78
2022-08-31T13:09:33.081Z,2.83
2022-08-31T13:12:01.535Z,3.20
2022-08-31T13:14:38.607Z,4.68
2022-08-31T13:17:16.001Z,6.22
2022-08-31T13:19:58.680Z,3.30
2022-08-31T13:22:37.700Z,4.55
2022-08-31T13:25:29.217Z,2.83
2022-08-31T13:27:58.656Z,4.00
2022-08-31T13:30:25.949Z,3.95
2022-08-31T13:33:06.022Z,4.35
2022-08-31T13:35:38.868Z,3.80
2022-08-31T13:38:55.917Z,3.45
2022-08-31T13:41:38.717Z,2.83
2022-08-31T13:44:09.862Z,3.00
2022-08-31T13:46:44.627Z,3.20
2022-08-31T13:49:30.861Z,3.85
2022-08-31T13:52:30.923Z,3.20
2022-08-31T13:55:08.340Z,5.93
2022-08-31T13:57:38.189Z,5.10
2022-08-31T14:00:31.179Z,5.07
2022-08-31T14:03:19.960Z,5.90
2022-08-31T14:05:48.859Z,3.40
2022-08-31T14:08:24.418Z,4.15
2022-08-31T14:10:52.452Z,4.15
2022-08-31T14:13:23.899Z,3.75
2022-08-31T14:15:58.691Z,3.67
2022-08-31T14:18:41.137Z,7.13
2022-08-31T14:21:27.175Z,5.32
2022-08-31T14:26:34.480Z,5.05
2022-08-31T14:29:16.479Z,6.38
2022-08-31T14:31:52.815Z,5.25
2022-08-31T14:34:33.821Z,3.80
2022-08-31T14:37:07.768Z,5.28
2022-08-31T14:39:42.408Z,4.53
2022-08-31T14:42:18.947Z,5.47
2022-08-31T14:44:56.537Z,4.90
2022-08-31T14:47:29.637Z,4.70
2022-08-31T14:50:05.322Z,4.18
2022-08-31T14:52:37.906Z,3.63
2022-08-31T14:55:09.186Z,5.57
2022-08-31T14:57:41.683Z,4.22
2022-08-31T15:00:12.014Z,6.40
2022-08-31T15:02:39.425Z,3.47
2022-08-31T15:05:09.165Z,5.28
2022-08-31T15:08:38.774Z,3.60
2022-08-31T15:12:02.426Z,5.70
2022-08-31T15:14:30.804Z,6.72
2022-08-31T15:17:01.054Z,7.00
2022-08-31T15:20:26.673Z,4.85
2022-08-31T15:23:15.959Z,3.50
2022-08-31T15:25:43.392Z,5.80
2022-08-31T15:28:14.382Z,6.57
2022-08-31T15:30:42.006Z,3.30
2022-08-31T15:33:11.914Z,3.83
2022-08-31T15:35:43.159Z,4.95
2022-08-31T15:38:11.710Z,3.72
2022-08-31T15:40:48.938Z,4.45
2022-08-31T15:43:16.677Z,4.00
2022-08-31T15:45:47.542Z,3.90
2022-08-31T15:49:56.791Z,3.70
2022-08-31T15:51:50.141Z,2.60
2022-08-31T15:56:54.102Z,4.30
2022-08-31T15:59:22.969Z,4.40
2022-08-31T16:01:52.930Z,3.83
2022-08-31T16:04:23.650Z,3.97
2022-08-31T16:06:52.728Z,3.25
2022-08-31T16:09:21.315Z,3.88
2022-08-31T16:11:50.841Z,3.17
2022-08-31T16:14:18.498Z,3.17
2022-08-31T16:16:48.118Z,3.30
2022-08-31T16:19:34.241Z,3.80
2022-08-31T16:22:05.909Z,3.55
2022-08-31T16:24:37.278Z,4.50
2022-08-31T16:27:11.918Z,4.57
2022-08-31T16:29:40.263Z,4.90
2022-08-31T16:32:09.334Z,7.47
2022-08-31T16:34:38.867Z,4.82
2022-08-31T16:37:07.973Z,4.35
2022-08-31T16:40:25.827Z,5.28
2022-08-31T16:42:53.285Z,6.25
2022-08-31T16:45:20.519Z,3.45
2022-08-31T16:47:47.809Z,4.60
2022-08-31T16:50:15.826Z,5.28
2022-08-31T16:52:44.490Z,3.45
2022-08-31T16:55:13.898Z,2.25
2022-08-31T16:57:44.617Z,2.40
2022-08-31T17:00:28.929Z,2.00
2022-08-31T17:03:01.476Z,1.60
2022-08-31T17:05:28.775Z,4.13
2022-08-31T17:07:57.111Z,2.33
2022-08-31T17:10:24.760Z,3.53
2022-08-31T17:12:55.690Z,1.83
2022-08-31T17:15:26.695Z,3.53
2022-08-31T17:17:56.276Z,3.50
2022-08-31T17:20:39.844Z,2.03
2022-08-31T17:23:07.298Z,2.35
2022-08-31T17:29:55.446Z,2.50
2022-08-31T17:43:58.066Z,5.22
2022-08-31T17:46:26.991Z,4.10
2022-08-31T17:48:55.981Z,3.35
2022-08-31T17:51:28.994Z,3.72
2022-08-31T17:57:58.158Z,6.15
2022-08-31T18:00:25.992Z,3.38
2022-08-31T18:02:53.527Z,3.15
2022-08-31T18:05:23.044Z,2.75
2022-08-31T18:08:37.706Z,5.45
2022-08-31T18:11:07.391Z,3.03
2022-08-31T18:13:34.673Z,3.08
2022-08-31T18:16:13.688Z,3.63
2022-08-31T18:18:47.911Z,2.88
2022-08-31T18:21:24.161Z,5.20
2022-08-31T18:23:54.438Z,2.80
2022-08-31T18:26:31.100Z,2.88
2022-08-31T18:29:14.847Z,3.38
2022-08-31T18:31:47.081Z,2.97
2022-08-31T18:34:26.560Z,4.80
2022-08-31T18:36:55.131Z,4.57
2022-08-31T18:39:47.671Z,3.30
2022-08-31T18:42:33.221Z,3.88
2022-08-31T18:45:18.043Z,4.70
2022-08-31T18:48:07.095Z,4.10
2022-08-31T18:50:36.875Z,5.03
2022-08-31T18:53:11.184Z,4.28
2022-08-31T18:55:43.858Z,4.82
2022-08-31T18:58:11.426Z,5.07
2022-08-31T19:00:40.119Z,6.72
2022-08-31T19:03:07.947Z,4.75
2022-08-31T19:05:38.846Z,4.07
2022-08-31T19:08:08.543Z,5.05
2022-08-31T19:10:38.245Z,4.38
2022-08-31T19:13:12.756Z,4.10
2022-08-31T19:15:40.596Z,4.50
2022-08-31T19:18:08.196Z,3.78
2022-08-31T19:20:36.061Z,4.80
2022-08-31T19:23:04.259Z,4.28
2022-08-31T19:25:35.073Z,6.53
2022-08-31T19:31:47.423Z,4.93
2022-08-31T19:38:14.380Z,4.15
2022-08-31T19:40:47.190Z,5.10
2022-08-31T19:46:33.433Z,4.75
2022-08-31T19:49:02.051Z,6.57
2022-08-31T19:51:32.474Z,4.30
2022-08-31T19:54:11.668Z,4.45
2022-08-31T19:56:42.651Z,5.95
2022-08-31T19:59:11.045Z,5.10
2022-08-31T20:01:47.823Z,4.35
2022-08-31T20:08:19.187Z,4.07
2022-08-31T20:10:55.048Z,4.43
2022-08-31T20:13:26.681Z,3.33
2022-08-31T20:16:06.011Z,3.65
2022-08-31T20:18:37.256Z,3.92
2022-08-31T20:21:28.499Z,4.22
2022-08-31T20:27:28.146Z,3.72
2022-08-31T20:30:05.161Z,3.08
2022-08-31T20:32:34.588Z,3.50
2022-08-31T20:35:16.558Z,3.17
2022-08-31T20:38:39.315Z,4.65
2022-08-31T20:41:09.495Z,5.78
2022-08-31T20:43:38.947Z,4.47
2022-08-31T20:46:09.141Z,4.63
2022-08-31T20:48:59.290Z,5.20
2022-08-31T20:51:41.334Z,6.05
2022-08-31T20:54:16.932Z,5.65
2022-08-31T20:56:55.216Z,8.55
2022-08-31T20:59:29.941Z,6.03
2022-08-31T21:02:15.215Z,4.35
2022-08-31T21:04:56.262Z,4.35
2022-08-31T21:07:58.169Z,7.68
2022-08-31T21:10:56.358Z,4.57
2022-08-31T21:16:55.362Z,4.22
2022-08-31T21:19:55.673Z,6.25
2022-08-31T21:22:24.338Z,4.47
2022-08-31T21:24:52.737Z,5.13
2022-08-31T21:27:21.548Z,4.90
2022-08-31T21:30:16.812Z,4.10
2022-08-31T21:32:44.648Z,3.25
2022-08-31T21:35:15.093Z,3.13
2022-08-31T21:37:44.133Z,2.70
2022-08-31T21:40:11.790Z,3.75
2022-08-31T21:42:39.376Z,3.83
2022-08-31T21:45:07.433Z,2.83
2022-08-31T21:47:34.769Z,2.83
2022-08-31T21:50:02.517Z,3.92
2022-08-31T21:52:29.904Z,5.22
2022-08-31T21:54:57.578Z,2.58
2022-08-31T21:57:25.698Z,2.90
2022-08-31T21:59:55.468Z,2.70
2022-08-31T22:02:23.018Z,3.78
2022-08-31T22:04:50.893Z,2.83
2022-08-31T22:07:18.183Z,2.78
2022-08-31T22:09:47.766Z,3.25
2022-08-31T22:12:18.202Z,3.50
2022-08-31T22:14:45.686Z,2.78
2022-08-31T22:17:15.911Z,4.82
2022-08-31T22:19:43.589Z,2.45
2022-08-31T22:22:12.644Z,2.75
2022-08-31T22:24:41.294Z,2.50
2022-08-31T22:27:11.178Z,2.83
2022-08-31T22:29:41.063Z,2.88
2022-08-31T22:32:13.148Z,2.28
2022-08-31T22:34:42.119Z,3.30
2022-08-31T22:37:11.161Z,2.85
2022-08-31T22:39:40.037Z,3.92
2022-08-31T22:42:08.963Z,3.78
2022-08-31T22:44:37.592Z,2.65
2022-08-31T22:47:05.180Z,2.88
2022-08-31T22:49:32.656Z,3.08
2022-08-31T22:51:59.899Z,3.20
2022-08-31T22:54:27.491Z,3.25
2022-08-31T22:56:55.026Z,3.47
2022-08-31T22:59:27.760Z,3.67
2022-08-31T23:02:00.726Z,3.05
2022-08-31T23:04:30.029Z,2.70
2022-08-31T23:06:59.251Z,4.40
2022-08-31T23:09:30.753Z,3.75
2022-08-31T23:12:00.776Z,2.95
2022-08-31T23:14:29.407Z,2.75
2022-08-31T23:17:00.652Z,3.15
2022-08-31T23:19:32.867Z,6.15
2022-08-31T23:22:01.532Z,4.70
2022-08-31T23:24:34.562Z,3.88
2022-08-31T23:27:04.981Z,3.15
2022-08-31T23:29:35.056Z,2.78
2022-08-31T23:32:04.966Z,3.33
2022-08-31T23:34:38.252Z,3.10
2022-08-31T23:37:10.201Z,3.35
2022-08-31T23:39:40.807Z,4.78
2022-08-31T23:42:11.159Z,3.15
2022-08-31T23:44:42.558Z,4.10
2022-08-31T23:47:13.593Z,3.28
2022-08-31T23:49:42.496Z,4.68
2022-08-31T23:52:11.979Z,4.18
2022-08-31T23:54:41.729Z,3.85
2022-08-31T23:57:31.388Z,3.75
